createdAt,value
2018-12-10T00:00:32.219Z,7.97
2018-12-10T00:03:05.449Z,4.93
2018-12-10T00:05:32.932Z,9.80
2018-12-10T00:08:00.391Z,8.53
2018-12-10T00:10:28.134Z,9.93
2018-12-10T00:12:55.591Z,7.17
2018-12-10T00:15:23.068Z,10.47
2018-12-10T00:17:50.531Z,9.23
2018-12-10T00:20:18.014Z,6.20
2018-12-10T00:22:45.476Z,6.37
2018-12-10T00:25:12.964Z,10.90
2018-12-10T00:27:40.437Z,8.37
2018-12-10T00:30:07.911Z,8.83
2018-12-10T00:32:35.392Z,9.70
2018-12-10T00:35:02.881Z,8.47
2018-12-10T00:37:30.349Z,9.27
2018-12-10T00:39:57.812Z,9.20
2018-12-10T00:42:25.291Z,6.97
2018-12-10T00:44:52.757Z,8.07
2018-12-10T00:47:20.230Z,8.73
2018-12-10T00:49:47.689Z,4.97
2018-12-10T00:52:15.171Z,5.50
2018-12-10T00:54:42.641Z,8.53
2018-12-10T00:57:10.125Z,5.83
2018-12-10T00:59:37.584Z,7.83
2018-12-10T01:02:05.394Z,7.93
2018-12-10T01:04:32.861Z,9.10
2018-12-10T01:07:00.361Z,8.53
2018-12-10T01:09:27.821Z,6.73
2018-12-10T01:11:55.300Z,2.87
2018-12-10T01:14:22.777Z,8.83
2018-12-10T01:16:50.287Z,6.20
2018-12-10T01:19:17.747Z,7.33
2018-12-10T01:21:45.230Z,2.50
2018-12-10T01:24:13.236Z,7.53
2018-12-10T01:26:40.713Z,10.23
2018-12-10T01:29:08.204Z,4.77
2018-12-10T01:31:35.662Z,5.43
2018-12-10T01:34:03.151Z,7.03
2018-12-10T01:36:30.691Z,6.27
2018-12-10T01:38:58.167Z,4.37
2018-12-10T01:41:25.652Z,5.13
2018-12-10T01:43:53.388Z,5.63
2018-12-10T01:46:20.852Z,5.20
2018-12-10T01:48:48.388Z,5.87
2018-12-10T01:51:15.854Z,9.17
2018-12-10T01:53:43.759Z,5.43
2018-12-10T01:56:11.267Z,7.00
2018-12-10T01:58:38.750Z,6.90
2018-12-10T02:01:06.325Z,4.67
2018-12-10T02:03:33.900Z,8.67
2018-12-10T02:06:01.359Z,4.27
2018-12-10T02:08:28.856Z,4.83
2018-12-10T02:10:56.320Z,2.10
2018-12-10T02:13:23.793Z,4.60
2018-12-10T02:15:51.357Z,6.07
2018-12-10T02:18:18.819Z,9.00
2018-12-10T02:20:46.318Z,5.07
2018-12-10T02:23:13.789Z,6.47
2018-12-10T02:25:41.284Z,5.33
2018-12-10T02:28:08.752Z,7.17
2018-12-10T02:30:36.235Z,6.67
2018-12-10T02:33:03.722Z,3.87
2018-12-10T02:35:31.411Z,6.97
2018-12-10T02:37:58.878Z,3.43
2018-12-10T02:40:26.361Z,6.37
2018-12-10T02:42:56.989Z,5.03
2018-12-10T02:45:24.539Z,4.63
2018-12-10T02:47:52.048Z,8.13
2018-12-10T02:50:19.534Z,4.33
2018-12-10T02:52:47.252Z,9.67
2018-12-10T02:55:14.732Z,5.50
2018-12-10T02:57:42.194Z,4.70
2018-12-10T03:00:09.683Z,4.90
2018-12-10T03:02:37.144Z,7.90
2018-12-10T03:05:04.898Z,9.33
2018-12-10T03:07:32.355Z,4.07
2018-12-10T03:09:59.848Z,5.53
2018-12-10T03:12:27.312Z,13.60
2018-12-10T03:14:54.800Z,4.53
2018-12-10T03:17:22.274Z,6.30
2018-12-10T03:19:49.772Z,6.57
2018-12-10T03:22:17.232Z,8.03
2018-12-10T03:24:44.695Z,9.87
2018-12-10T03:27:12.184Z,6.20
2018-12-10T03:29:39.648Z,6.07
2018-12-10T03:32:07.207Z,9.13
2018-12-10T03:34:34.667Z,7.33
2018-12-10T03:37:02.156Z,6.37
2018-12-10T03:39:29.623Z,4.53
2018-12-10T03:41:57.108Z,4.87
2018-12-10T03:44:24.575Z,5.97
2018-12-10T03:46:52.121Z,7.57
2018-12-10T03:49:19.628Z,8.43
2018-12-10T03:51:47.118Z,9.93
2018-12-10T03:54:14.580Z,10.87
2018-12-10T03:56:42.057Z,8.73
2018-12-10T03:59:09.531Z,12.70
2018-12-10T04:01:37.008Z,7.53
2018-12-10T04:04:04.477Z,8.50
2018-12-10T04:06:31.959Z,10.87
2018-12-10T04:08:59.416Z,9.60
2018-12-10T04:11:26.911Z,9.87
2018-12-10T04:13:54.385Z,12.67
2018-12-10T04:16:21.859Z,14.07
2018-12-10T04:18:49.370Z,10.70
2018-12-10T04:21:16.872Z,12.87
2018-12-10T04:23:44.337Z,9.07
2018-12-10T04:26:11.901Z,14.20
2018-12-10T04:28:39.384Z,10.83
2018-12-10T04:31:06.889Z,9.43
2018-12-10T04:33:34.351Z,9.40
2018-12-10T04:36:01.848Z,6.40
2018-12-10T04:38:29.340Z,10.23
2018-12-10T04:40:56.809Z,14.37
2018-12-10T04:43:24.300Z,13.30
2018-12-10T04:45:51.776Z,14.27
2018-12-10T04:48:19.257Z,9.33
2018-12-10T04:50:46.733Z,12.63
2018-12-10T04:53:14.215Z,9.43
2018-12-10T04:55:41.679Z,10.20
2018-12-10T04:58:09.236Z,12.53
2018-12-10T05:00:36.716Z,14.97
2018-12-10T05:03:04.200Z,15.77
2018-12-10T05:05:31.664Z,15.07
2018-12-10T05:07:59.160Z,21.07
2018-12-10T05:10:26.633Z,22.10
2018-12-10T05:12:54.131Z,24.70
2018-12-10T05:15:21.608Z,22.80
2018-12-10T05:17:49.100Z,22.07
2018-12-10T05:20:16.615Z,24.50
2018-12-10T05:22:44.109Z,21.10
2018-12-10T05:25:11.576Z,26.97
2018-12-10T05:27:39.076Z,22.33
2018-12-10T05:30:06.899Z,23.43
2018-12-10T05:32:34.483Z,19.57
2018-12-10T05:35:02.063Z,21.67
2018-12-10T05:37:29.753Z,23.93
2018-12-10T05:39:57.231Z,21.23
2018-12-10T05:42:24.725Z,19.90
2018-12-10T05:44:52.189Z,21.87
2018-12-10T05:47:19.683Z,13.37
2018-12-10T05:49:47.168Z,16.57
2018-12-10T05:52:14.758Z,13.90
2018-12-10T05:54:42.224Z,13.10
2018-12-10T05:57:09.723Z,13.50
2018-12-10T05:59:37.831Z,18.23
2018-12-10T06:02:05.459Z,16.80
2018-12-10T06:04:32.951Z,14.83
2018-12-10T06:07:00.420Z,15.40
2018-12-10T06:09:27.904Z,15.73
2018-12-10T06:11:55.383Z,15.27
2018-12-10T06:14:22.872Z,14.00
2018-12-10T06:16:50.332Z,13.63
2018-12-10T06:19:17.821Z,13.23
2018-12-10T06:21:45.284Z,16.70
2018-12-10T06:24:12.762Z,13.20
2018-12-10T06:26:40.239Z,10.73
2018-12-10T06:29:07.721Z,10.90
2018-12-10T06:31:35.192Z,4.40
2018-12-10T06:34:03.205Z,9.43
2018-12-10T06:36:30.672Z,8.23
2018-12-10T06:38:58.147Z,7.97
2018-12-10T06:41:25.607Z,7.33
2018-12-10T06:43:53.097Z,8.60
2018-12-10T06:46:20.569Z,7.40
2018-12-10T06:48:48.054Z,11.00
2018-12-10T06:51:15.868Z,10.77
2018-12-10T06:53:43.398Z,11.37
2018-12-10T06:56:10.862Z,13.07
2018-12-10T06:58:38.367Z,13.40
2018-12-10T07:01:05.832Z,14.03
2018-12-10T07:03:33.380Z,11.83
2018-12-10T07:06:00.891Z,8.30
2018-12-10T07:08:28.376Z,13.97
2018-12-10T07:10:55.847Z,13.60
2018-12-10T07:13:23.340Z,17.43
2018-12-10T07:15:50.815Z,19.83
2018-12-10T07:18:18.286Z,19.17
2018-12-10T07:20:45.771Z,28.10
2018-12-10T07:23:13.255Z,22.23
2018-12-10T07:25:40.748Z,28.60
2018-12-10T07:28:08.216Z,29.73
2018-12-10T07:30:41.404Z,27.90
2018-12-10T07:33:05.192Z,25.47
2018-12-10T07:35:32.681Z,25.00
2018-12-10T07:38:00.234Z,25.50
2018-12-10T07:40:27.718Z,24.60
2018-12-10T07:42:55.182Z,23.37
2018-12-10T07:45:22.680Z,24.30
2018-12-10T07:47:50.152Z,20.43
2018-12-10T07:50:17.644Z,17.63
2018-12-10T07:52:45.119Z,18.87
2018-12-10T07:55:12.807Z,20.67
2018-12-10T07:57:40.292Z,21.47
2018-12-10T08:00:07.996Z,28.23
2018-12-10T08:02:36.475Z,24.90
2018-12-10T08:05:12.109Z,24.23
2018-12-10T08:07:34.303Z,27.90
2018-12-10T08:10:02.448Z,25.07
2018-12-10T08:12:29.915Z,31.03
2018-12-10T08:14:57.404Z,31.67
2018-12-10T08:17:24.894Z,33.03
2018-12-10T08:19:52.400Z,42.47
2018-12-10T08:22:19.896Z,36.10
2018-12-10T08:24:47.607Z,35.03
2018-12-10T08:27:15.317Z,36.57
2018-12-10T08:29:42.816Z,36.63
2018-12-10T08:32:10.450Z,35.60
2018-12-10T08:37:07.429Z,36.43
2018-12-10T08:39:35.972Z,38.07
2018-12-10T08:40:14.008Z,32.93
2018-12-10T08:42:03.804Z,39.60
2018-12-10T08:44:31.320Z,32.57
2018-12-10T08:46:58.855Z,29.70
2018-12-10T08:49:26.403Z,23.63
2018-12-10T08:51:53.888Z,31.43
2018-12-10T08:54:21.363Z,23.60
2018-12-10T08:56:48.894Z,20.57
2018-12-10T08:59:16.446Z,21.37
2018-12-10T09:01:44.233Z,20.30
2018-12-10T09:04:11.708Z,17.00
2018-12-10T09:06:39.229Z,11.50
2018-12-10T09:09:07.715Z,21.53
2018-12-10T09:11:35.563Z,15.13
2018-12-10T09:14:04.001Z,17.13
2018-12-10T09:16:32.483Z,16.20
2018-12-10T09:19:01.628Z,15.37
2018-12-10T09:21:29.358Z,16.17
2018-12-10T09:23:56.827Z,12.33
2018-12-10T09:26:24.391Z,21.23
2018-12-10T09:28:51.856Z,13.90
2018-12-10T09:31:19.532Z,16.63
2018-12-10T09:33:47.483Z,16.23
2018-12-10T09:36:14.960Z,12.07
2018-12-10T09:38:42.432Z,12.57
2018-12-10T09:41:09.896Z,13.57
2018-12-10T09:43:37.385Z,9.67
2018-12-10T09:46:05.149Z,13.20
2018-12-10T09:48:32.730Z,14.23
2018-12-10T09:51:00.201Z,11.07
2018-12-10T09:53:27.969Z,10.27
2018-12-10T09:55:55.841Z,15.63
2018-12-10T09:58:23.325Z,16.17
2018-12-10T10:00:50.860Z,11.80
2018-12-10T10:03:18.351Z,12.07
2018-12-10T10:05:45.990Z,9.70
2018-12-10T10:08:14.651Z,8.13
2018-12-10T10:10:42.199Z,10.13
2018-12-10T10:13:09.927Z,6.67
2018-12-10T10:15:37.483Z,10.33
2018-12-10T10:18:05.013Z,14.80
2018-12-10T10:20:32.567Z,12.90
2018-12-10T10:23:00.199Z,14.40
2018-12-10T10:25:27.667Z,13.07
2018-12-10T10:27:55.168Z,11.97
2018-12-10T10:30:23.747Z,17.40
2018-12-10T10:32:51.252Z,10.37
2018-12-10T10:35:18.758Z,12.97
2018-12-10T10:37:46.336Z,10.00
2018-12-10T10:40:13.800Z,12.97
2018-12-10T10:42:41.756Z,10.70
2018-12-10T10:45:09.340Z,12.87
2018-12-10T10:47:37.355Z,16.93
2018-12-10T10:50:05.672Z,14.00
2018-12-10T10:52:33.470Z,10.50
2018-12-10T10:55:01.244Z,9.30
2018-12-10T10:57:28.804Z,9.83
2018-12-10T10:59:56.586Z,12.77
2018-12-10T11:02:29.905Z,8.03
2018-12-10T11:04:57.751Z,12.17
2018-12-10T11:07:25.244Z,11.70
2018-12-10T11:09:52.946Z,9.53
2018-12-10T11:12:20.757Z,10.23
2018-12-10T11:14:48.296Z,6.50
2018-12-10T11:17:15.797Z,10.47
2018-12-10T11:19:43.280Z,8.60
2018-12-10T11:22:10.788Z,9.37
2018-12-10T11:24:38.274Z,7.77
2018-12-10T11:27:05.772Z,8.17
2018-12-10T11:29:33.344Z,10.70
2018-12-10T11:32:00.851Z,7.60
2018-12-10T11:34:28.372Z,12.83
2018-12-10T11:36:55.907Z,8.87
2018-12-10T11:39:23.389Z,5.47
2018-12-10T11:41:50.875Z,7.60
2018-12-10T11:44:18.339Z,8.23
2018-12-10T11:46:45.818Z,11.23
2018-12-10T11:49:13.300Z,7.23
2018-12-10T11:51:40.775Z,5.80
2018-12-10T11:54:08.248Z,10.20
2018-12-10T11:56:35.752Z,7.23
2018-12-10T11:59:03.405Z,7.93
2018-12-10T12:01:30.889Z,6.77
2018-12-10T12:03:58.405Z,10.67
2018-12-10T12:06:25.894Z,5.50
2018-12-10T12:08:53.360Z,14.70
2018-12-10T12:11:20.841Z,7.27
2018-12-10T12:13:48.313Z,7.80
2018-12-10T12:16:15.791Z,10.33
2018-12-10T12:18:43.261Z,13.67
2018-12-10T12:21:10.741Z,7.30
2018-12-10T12:23:38.200Z,8.90
2018-12-10T12:26:05.755Z,9.10
2018-12-10T12:28:33.217Z,6.90
2018-12-10T12:31:00.696Z,8.50
2018-12-10T12:33:28.167Z,5.93
2018-12-10T12:35:55.702Z,7.90
2018-12-10T12:38:23.230Z,10.67
2018-12-10T12:40:50.715Z,12.60
2018-12-10T12:43:18.200Z,7.27
2018-12-10T12:45:45.817Z,6.53
2018-12-10T12:48:13.408Z,10.07
2018-12-10T12:50:40.875Z,12.03
2018-12-10T12:53:08.382Z,6.83
2018-12-10T12:55:35.847Z,8.50
2018-12-10T12:58:03.404Z,6.60
2018-12-10T13:00:31.502Z,6.43
2018-12-10T13:02:58.988Z,10.27
2018-12-10T13:05:26.459Z,7.50
2018-12-10T13:07:53.936Z,4.17
2018-12-10T13:10:21.492Z,7.97
2018-12-10T13:12:48.960Z,5.70
2018-12-10T13:15:16.439Z,6.20
2018-12-10T13:20:08.557Z,6.43
2018-12-10T13:22:36.023Z,4.63
2018-12-10T13:25:03.518Z,6.53
2018-12-10T13:27:39.252Z,5.50
2018-12-10T13:30:06.735Z,1.60
2018-12-10T13:32:34.217Z,2.63
2018-12-10T13:35:01.715Z,4.27
2018-12-10T13:37:29.188Z,6.20
2018-12-10T13:39:56.690Z,4.97
2018-12-10T13:42:24.155Z,5.07
2018-12-10T13:44:51.664Z,9.97
2018-12-10T13:47:19.134Z,5.27
2018-12-10T13:49:46.608Z,4.33
2018-12-10T13:52:14.116Z,5.93
2018-12-10T13:54:41.585Z,4.67
2018-12-10T13:57:09.067Z,5.60
2018-12-10T13:59:36.560Z,4.73
2018-12-10T14:02:04.057Z,3.67
2018-12-10T14:04:33.419Z,5.40
2018-12-10T14:07:00.964Z,3.37
2018-12-10T14:09:28.464Z,4.70
2018-12-10T14:11:55.980Z,3.60
2018-12-10T14:14:23.760Z,3.40
2018-12-10T14:16:51.255Z,4.83
2018-12-10T14:19:18.748Z,3.87
2018-12-10T14:21:46.236Z,5.77
2018-12-10T14:24:13.728Z,3.03
2018-12-10T14:26:41.340Z,3.77
2018-12-10T14:29:08.813Z,3.93
2018-12-10T14:31:36.303Z,8.20
2018-12-10T14:34:09.755Z,5.17
2018-12-10T14:36:37.244Z,4.37
2018-12-10T14:39:08.400Z,2.70
2018-12-10T14:41:35.964Z,7.63
2018-12-10T14:44:03.620Z,5.60
2018-12-10T14:46:31.116Z,7.03
2018-12-10T14:48:58.675Z,7.80
2018-12-10T14:51:26.283Z,5.40
2018-12-10T14:53:53.776Z,6.07
2018-12-10T14:56:21.263Z,6.30
2018-12-10T14:58:48.805Z,5.90
2018-12-10T15:01:16.321Z,10.60
2018-12-10T15:03:44.441Z,8.57
2018-12-10T15:06:12.186Z,8.37
2018-12-10T15:08:39.670Z,6.37
2018-12-10T15:11:07.130Z,12.73
2018-12-10T15:13:34.628Z,10.73
2018-12-10T15:16:02.106Z,15.90
2018-12-10T15:18:29.597Z,10.70
2018-12-10T15:20:57.072Z,10.50
2018-12-10T15:23:24.543Z,9.13
2018-12-10T15:25:52.015Z,12.20
2018-12-10T15:28:19.498Z,7.40
2018-12-10T15:30:46.974Z,8.77
2018-12-10T15:33:14.458Z,6.00
2018-12-10T15:35:42.053Z,8.10
2018-12-10T15:38:09.556Z,10.27
2018-12-10T15:40:37.041Z,7.67
2018-12-10T15:43:04.520Z,5.40
2018-12-10T15:45:32.003Z,6.80
2018-12-10T15:47:59.521Z,5.80
2018-12-10T15:50:27.053Z,8.70
2018-12-10T15:52:54.524Z,8.47
2018-12-10T15:55:22.011Z,9.47
2018-12-10T15:57:49.507Z,8.47
2018-12-10T16:00:16.996Z,7.80
2018-12-10T16:02:44.464Z,8.67
2018-12-10T16:05:12.080Z,8.27
2018-12-10T16:07:39.544Z,7.00
2018-12-10T16:10:07.793Z,8.90
2018-12-10T16:12:35.269Z,6.43
2018-12-10T16:15:02.840Z,8.33
2018-12-10T16:17:30.304Z,10.77
2018-12-10T16:19:57.788Z,5.00
2018-12-10T16:22:25.328Z,6.17
2018-12-10T16:24:52.921Z,8.57
2018-12-10T16:27:20.805Z,9.00
2018-12-10T16:29:48.288Z,8.87
2018-12-10T16:32:15.783Z,10.20
2018-12-10T16:34:43.283Z,11.37
2018-12-10T16:37:10.748Z,10.17
2018-12-10T16:39:43.580Z,10.10
2018-12-10T16:42:08.292Z,11.07
2018-12-10T16:44:35.793Z,15.27
2018-12-10T16:47:03.263Z,11.37
2018-12-10T16:49:30.779Z,14.40
2018-12-10T16:51:58.327Z,15.87
2018-12-10T16:54:25.864Z,15.53
2018-12-10T16:56:53.352Z,11.30
2018-12-10T16:59:20.824Z,13.73
2018-12-10T17:01:48.335Z,13.40
2018-12-10T17:04:15.933Z,9.80
2018-12-10T17:06:44.353Z,21.07
2018-12-10T17:09:11.968Z,14.67
2018-12-10T17:11:39.707Z,12.40
2018-12-10T17:14:07.457Z,16.10
2018-12-10T17:16:35.019Z,12.53
2018-12-10T17:19:02.484Z,13.13
2018-12-10T17:21:30.124Z,13.20
2018-12-10T17:23:57.596Z,13.10
2018-12-10T17:26:25.160Z,13.00
2018-12-10T17:28:53.076Z,12.10
2018-12-10T17:31:20.691Z,16.47
2018-12-10T17:33:48.163Z,15.17
2018-12-10T17:36:15.628Z,22.03
2018-12-10T17:38:43.117Z,10.33
2018-12-10T17:41:10.613Z,13.87
2018-12-10T17:43:38.108Z,12.10
2018-12-10T17:46:05.659Z,12.00
2018-12-10T17:48:33.409Z,23.70
2018-12-10T17:51:01.810Z,9.77
2018-12-10T17:53:29.352Z,10.50
2018-12-10T17:55:56.815Z,9.07
2018-12-10T17:58:24.308Z,11.90
2018-12-10T18:00:51.776Z,13.77
2018-12-10T18:03:19.467Z,15.37
2018-12-10T18:05:47.995Z,20.43
2018-12-10T18:08:15.628Z,17.90
2018-12-10T18:10:43.985Z,11.73
2018-12-10T18:13:11.839Z,9.47
2018-12-10T18:15:39.308Z,14.87
2018-12-10T18:18:06.787Z,20.57
2018-12-10T18:20:34.257Z,20.93
2018-12-10T18:23:01.936Z,22.40
2018-12-10T18:25:29.442Z,16.63
2018-12-10T18:27:57.092Z,16.70
2018-12-10T18:30:24.863Z,13.37
2018-12-10T18:32:52.389Z,18.70
2018-12-10T18:35:19.908Z,16.33
2018-12-10T18:37:47.376Z,16.67
2018-12-10T18:40:14.865Z,15.57
2018-12-10T18:42:42.342Z,18.23
2018-12-10T18:45:11.800Z,18.00
2018-12-10T18:47:39.271Z,14.47
2018-12-10T18:50:06.921Z,16.30
2018-12-10T18:52:34.385Z,25.73
2018-12-10T18:55:01.951Z,18.13
2018-12-10T18:57:29.419Z,13.53
2018-12-10T18:59:57.834Z,11.87
2018-12-10T19:02:25.630Z,17.80
2018-12-10T19:04:53.141Z,10.97
2018-12-10T19:07:20.608Z,16.30
2018-12-10T19:09:48.868Z,19.97
2018-12-10T19:12:16.341Z,15.47
2018-12-10T19:14:44.202Z,20.57
2018-12-10T19:17:11.917Z,16.73
2018-12-10T19:19:39.746Z,15.90
2018-12-10T19:22:07.380Z,13.90
2018-12-10T19:24:34.913Z,19.60
2018-12-10T19:27:02.399Z,21.17
2018-12-10T19:29:29.888Z,14.93
2018-12-10T19:31:57.371Z,17.27
2018-12-10T19:34:24.850Z,19.83
2018-12-10T19:36:52.340Z,19.43
2018-12-10T19:39:19.803Z,18.57
2018-12-10T19:41:47.293Z,18.87
2018-12-10T19:44:14.764Z,20.83
2018-12-10T19:46:42.522Z,24.23
2018-12-10T19:49:09.987Z,26.73
2018-12-10T19:51:37.549Z,18.63
2018-12-10T19:54:05.015Z,20.57
2018-12-10T19:56:32.511Z,30.47
2018-12-10T19:58:59.979Z,19.80
2018-12-10T20:01:27.467Z,22.37
2018-12-10T20:03:55.193Z,20.77
2018-12-10T20:06:28.304Z,22.20
2018-12-10T20:08:55.776Z,26.37
2018-12-10T20:11:23.272Z,25.63
2018-12-10T20:13:50.744Z,18.87
2018-12-10T20:16:18.247Z,26.83
2018-12-10T20:18:45.729Z,27.77
2018-12-10T20:21:13.220Z,25.40
2018-12-10T20:23:40.844Z,20.47
2018-12-10T20:26:08.341Z,24.47
2018-12-10T20:28:35.971Z,22.97
2018-12-10T20:31:03.523Z,21.23
2018-12-10T20:33:31.021Z,26.00
2018-12-10T20:35:58.593Z,27.00
2018-12-10T20:38:26.329Z,21.40
2018-12-10T20:40:53.979Z,25.70
2018-12-10T20:43:21.459Z,33.77
2018-12-10T20:45:48.938Z,29.50
2018-12-10T20:48:16.466Z,28.90
2018-12-10T20:50:43.924Z,25.70
2018-12-10T20:53:11.418Z,23.67
2018-12-10T20:55:38.887Z,26.57
2018-12-10T20:58:06.382Z,22.37
2018-12-10T21:00:33.914Z,20.10
2018-12-10T21:03:01.423Z,26.47
2018-12-10T21:05:28.988Z,24.60
2018-12-10T21:08:01.508Z,20.73
2018-12-10T21:10:29.020Z,27.83
2018-12-10T21:12:56.492Z,31.87
2018-12-10T21:15:23.980Z,28.20
2018-12-10T21:17:51.457Z,27.77
2018-12-10T21:20:18.985Z,25.57
2018-12-10T21:22:46.468Z,27.30
2018-12-10T21:25:13.965Z,22.43
2018-12-10T21:27:41.430Z,23.47
2018-12-10T21:30:08.986Z,26.17
2018-12-10T21:32:36.464Z,31.90
2018-12-10T21:35:04.274Z,22.80
2018-12-10T21:37:31.750Z,29.77
2018-12-10T21:39:59.253Z,20.43
2018-12-10T21:42:26.751Z,22.43
2018-12-10T21:44:54.235Z,25.17
2018-12-10T21:47:21.744Z,31.43
2018-12-10T21:49:49.204Z,25.67
2018-12-10T21:52:16.773Z,26.53
2018-12-10T21:54:44.371Z,22.20
2018-12-10T21:57:11.992Z,21.00
2018-12-10T21:59:39.473Z,23.63
2018-12-10T22:02:06.989Z,20.07
2018-12-10T22:04:34.473Z,22.57
2018-12-10T22:07:01.957Z,18.23
2018-12-10T22:09:29.450Z,25.07
2018-12-10T22:11:56.938Z,25.50
2018-12-10T22:14:24.412Z,20.87
2018-12-10T22:16:51.899Z,20.50
2018-12-10T22:19:19.390Z,21.47
2018-12-10T22:21:46.874Z,20.73
2018-12-10T22:24:14.366Z,18.27
2018-12-10T22:26:41.860Z,20.83
2018-12-10T22:29:09.328Z,17.40
2018-12-10T22:31:36.807Z,20.47
2018-12-10T22:34:04.295Z,20.27
2018-12-10T22:36:31.775Z,19.87
2018-12-10T22:38:59.355Z,22.23
2018-12-10T22:41:26.837Z,17.73
2018-12-10T22:43:54.329Z,22.30
2018-12-10T22:46:21.817Z,21.57
2018-12-10T22:48:49.343Z,18.30
2018-12-10T22:51:16.909Z,14.80
2018-12-10T22:53:44.402Z,18.27
2018-12-10T22:56:11.883Z,12.97
2018-12-10T22:58:39.382Z,16.83
2018-12-10T23:01:06.931Z,15.00
2018-12-10T23:03:34.421Z,17.57
2018-12-10T23:06:01.919Z,15.80
2018-12-10T23:08:29.456Z,15.40
2018-12-10T23:10:56.970Z,19.17
2018-12-10T23:13:24.452Z,15.97
2018-12-10T23:15:51.920Z,16.27
2018-12-10T23:18:19.382Z,17.93
2018-12-10T23:20:46.863Z,16.57
2018-12-10T23:23:14.331Z,18.80
2018-12-10T23:25:41.832Z,13.77
2018-12-10T23:28:09.300Z,18.10
2018-12-10T23:30:36.783Z,20.03
2018-12-10T23:33:04.332Z,16.90
2018-12-10T23:35:31.818Z,14.77
2018-12-10T23:37:59.330Z,17.63
2018-12-10T23:40:26.815Z,15.80
2018-12-10T23:43:00.031Z,19.70
2018-12-10T23:45:27.525Z,19.60
2018-12-10T23:47:54.996Z,16.53
2018-12-10T23:50:22.489Z,21.67
2018-12-10T23:52:49.961Z,17.47
2018-12-10T23:55:17.458Z,19.63
2018-12-10T23:57:44.921Z,14.70
